RJGGRJFF

Guest
Details From RJGG - Chubu Centrair Intl
To RJFF - Fukuoka
Flight Number -
Tags Generated
Created
Modified
Stats Distance 325 nm / 603 km
Max Altitude 0 ft / 0 m
Waypoints 3
Social Downloads 0
Likes 0
Share VATSIM

Download

Looking for another format? Having issues loading an existing format? Contact us
Advertisement - Login to hide

Notes

Generated

Route

RJGG DGC25 RJFF

ID Type Via Altitude Latitude Longitude Leg Dist Tot Dist Heading (true) Name
O RJGG APT - 0 ft / 0 m 34.87389˚ 136.80168˚ - 0 nm - -
DGC25 FIX - 0 ft / 0 m 33.78821˚ 130.87091˚ 301 nm 301 nm 259° / 256° -
O RJFF APT - 0 ft / 0 m 33.59692˚ 130.44319˚ 24 nm 325 nm 242° / 242° -

Altitude Profile

Advertisement - Login to hide

Weather


0- 5 10 15 20 25 30 35+ Temperature / ° C

Clouds and Precipitation
Forecast for 2017-12-11 18:00 UTC. Updated 18 minutes ago

Ground ~20,000 ft ~40,000 ft Winds

RJGG

Details ICAO RJGG (NGO)
Name CHUBU CENTRAIR INTL
Region Japan
Timezone Asia/Tokyo (UTC+9.0)
Stats Elevation 15 ft / 5 m (AMSL)
Location 34.858414° 136.805408°
Runways 1
Magnetic Variation 7.580° W

METAR

RJGG 111500Z 28025KT 9999 FEW020 05/M02 Q1013 TEMPO 28034G44KT

Decode

TAF

TAF RJGG 111108Z 1112/1218 28028KT 9999 FEW020 TEMPO 1112/1119 28034G44KT TEMPO 1121/1200 28028G38KT

Decode

Departure Runways

ID Width Length Bearing (true) Bearing (mag) Surface Threshold Offset Overrun Length
18 197 ft / 60 m 11,511 ft / 3,509 m 168.81° 176.39° Asphalt 0 ft / 0 m 197 ft / 60 m
36 197 ft / 60 m 11,511 ft / 3,509 m 348.81° 356.39° Asphalt 0 ft / 0 m 197 ft / 60 m

RJFF

Details ICAO RJFF (FUK)
Name FUKUOKA
Region Japan
Timezone Asia/Tokyo (UTC+9.0)
Stats Elevation 32 ft / 10 m (AMSL)
Location 33.585943° 130.450686°
Runways 1
Magnetic Variation 7.448° W

METAR

RJFF 111530Z AUTO 30016KT 260V320 9999 -SNRA FEW044 BKN050 OVC060 05/M05 Q1022 RMK A3020

Decode

TAF

TAF RJFF 111107Z 1112/1218 30020G30KT 8000 -SHSNRA FEW015 SCT030 BKN040 TEMPO 1115/1118 4000 -SHSNRA TEMPO 1118/1200 3000 -SHSN BECMG 1209/1212 32010KT

Decode

Destination Runways

ID Width Length Bearing (true) Bearing (mag) Surface Threshold Offset Overrun Length
16 197 ft / 60 m 9,217 ft / 2,810 m 150.35° 157.80° Asphalt 0 ft / 0 m 719 ft / 219 m
34 197 ft / 60 m 9,217 ft / 2,810 m 330.35° 337.80° Asphalt 0 ft / 0 m 801 ft / 244 m

Approach Navaids

Runway Type Ident Frequency Range Bearing (true) Bearing (mag) Slope Elevation
16 Localiser IFO 111.70 MHz 18 nm / 33 km 150.48° 157.93° - 18 ft / 5 m (AMSL)
16 Glidescope IFO 111.70 MHz 10 nm / 19 km 150.35° 157.80° 3.00° 58 ft / 18 m (AMSL)
34 Localiser IFF 108.90 MHz 18 nm / 33 km 330.34° 337.79° - 18 ft / 5 m (AMSL)
34 Glidescope IFF 108.90 MHz 10 nm / 19 km 330.35° 337.80° 3.00° 46 ft / 14 m (AMSL)
34 DME IFF 108.90 MHz 18 nm / 33 km - - - 46 ft / 14 m (AMSL)

Popular Alternatives